Aeroporto :







RITROVATECI SU...

 
LOGIN :

Iscrizione | Disclaimer

   EN    FR    IT 

 









Sommario :    VFR   VFR Marginale   IFR   IFR Intensivo   IFR Molto Intensivo
Visibilità : 
Base nubi : 
>= 8 km
>= 3000ft
5 / 8 km
1000 / 3000 ft
1500m / 5 km
500 / 1000 ft
800 / 1500m
200 / 500 ft
< 800m
< 200 ft
Simboli :   Temporali  Nebbia  Neve Forte  Precipitazioni Forti  Vento > 20 kt






- Altitudine del aeroporto : 23 ft
- Codice IATA : STT


TIST - King

ULTIMO METAR :
  • 011253Z 13007KT 10SM FEW026 OVC075 28/24 A3006 RMK AO2 SLP178 T02830239 PNO

METARs OBSOLETI :
  • 011153Z 08006KT 10SM OVC070 27/24 A3005 RMK AO2 RAE15 SLP176 6//// 7//// T02720239 10278 20261 53016 PNO
  • 011053Z 12006KT 10SM -RA SCT043 BKN060 OVC090 27/24 A3004 RMK AO2 RAB0957E10B53 SLP172 T02670239 PNO

TAF TIST
Valido dal 01 a 12 ore il 02 a 12 ore UTC


011124Z 0112/0212 08009KT P6SM VCSH FEW030 SCT060
FM011300 13014KT P6SM FEW030
FM012330 06009KT P6SM FEW025
FM020300 07008KT P6SM VCSH FEW030 SCT060
FIR TJZS / America del Nord



MetMap, La meteo Aeronautica in un colpo d'occhio ! - Copyright ORBIFLY Dicembre 2007 - Disclaimer

ORBIFLY MET'MAP TEAM :

Programmazione e sviluppo : Alexandra Zaïnal
Concezione : Baudouin d'Aumeries
Aiuto per la programmazione : Marc-Olivier Méhu
Supporto tecnico e logistico : Manuel Goepfert
Aiuto per la traduzione : Arnaldo La Scala

Contatto : metmap@orbifly.com




FONTI E CREDITI :

   NOAA